Lake Charles Regional Airport
KLCH : now visible

Airfield :











YOU CAN JOIN US ON...

 
LOGIN :

Register | Disclaimer

   EN    FR    IT 

 









Legend :    VFR   Marginal VFR   IFR   Intensive IFR   Very Intensive IFR
Visi :
Ceiling :
>= 8 km
>= 3000ft
5 to 8 km
1000 to 3000 ft
1500m to 5 km
500 to 1000 ft
800 to 1500m
200 to 500 ft
< 800m
< 200 ft
Symbols :   Thunderstorms  Fog  Heavy snow  Heavy precipitations  Wind > 20 kt






- Airport Elevation : 15 ft
- IATA code : LCH


KLCH - Lake Charles Regional

CURRENT METAR :
  • 281553Z 18003KT 10SM FEW009 SCT055 OVC100 23/22 A2979 RMK AO2 SLP094 T02330222

EXPIRED METARs :
  • 281537Z 14011KT 6SM BR SCT008 BKN055 OVC065 23/23 A2980 RMK AO2 T02330228
  • 281529Z 14014KT 6SM BR BKN007 BKN018 OVC060 24/23 A2980 RMK AO2 T02440233
  • 281516Z 11010KT 5SM BR SCT005 BKN010 OVC035 24/24 A2980 RMK AO2 T02440239
  • 281453Z 09008KT 5SM BR SCT004 BKN048 OVC090 24/23 A2979 RMK AO2 RAB21E47 SLP094 P0000 60000 T02390233 58002
  • 281441Z 08007KT 3SM -RA BR SCT004 BKN037 OVC080 23/23 A2979 RMK AO2 RAB21 P0000 T02330233
  • 281428Z 09010KT 2SM -RA BR BKN004 BKN037 OVC080 23/23 A2979 RMK AO2 RAB21 P0000 T02280228

TAF KLCH
Valid from the 28 at 16:00 until the 29 at 12:00 UTC


281544Z 2816/2912 07009KT P6SM VCSH SCT008 BKN015
TEMPO 2816/2820 4SM SHRA BR BKN008
FM282000 35010G20KT P6SM VCSH OVC008
TEMPO 2820/2824 4SM SHRA OVC003
FM290000 32014G20KT P6SM BKN009
FM290800 29010KT P6SM FEW025
KZHU FIR / North America



MET'MAP, your aeronautical weather chart ! - Copyright ORBIFLY December 2007 - Disclaimer

ORBIFLY MET'MAP TEAM :

Programming & Development : Alexandra Zaïnal
Concept & original design : Baudouin d'Aumeries
Assistance for programming : Marc-Olivier Méhu
Technical & hardware support : Manuel Goepfert

Contact : metmap@orbifly.com




SOURCES & CREDITS :

   NOAA       Earth
Advisory